createdAt,value
2019-01-11T00:00:37.086Z,-0.13
2019-01-11T00:02:38.045Z,-0.15
2019-01-11T00:04:40.749Z,-0.22
2019-01-11T00:06:41.738Z,-0.09
2019-01-11T00:08:42.816Z,-0.09
2019-01-11T00:10:44.218Z,-0.11
2019-01-11T00:12:45.354Z,-0.13
2019-01-11T00:14:46.400Z,-0.10
2019-01-11T00:16:47.416Z,-0.06
2019-01-11T00:18:48.644Z,0.01
2019-01-11T00:20:49.647Z,0.12
2019-01-11T00:22:51.066Z,0.13
2019-01-11T00:24:52.083Z,0.18
2019-01-11T00:26:54.221Z,0.29
2019-01-11T00:28:55.212Z,0.37
2019-01-11T00:30:56.153Z,0.33
2019-01-11T00:32:58.898Z,0.54
2019-01-11T00:35:00.092Z,0.67
2019-01-11T00:37:02.116Z,0.73
2019-01-11T00:39:06.026Z,0.91
2019-01-11T00:41:07.205Z,1.08
2019-01-11T00:43:14.871Z,0.88
2019-01-11T00:45:11.403Z,0.65
2019-01-11T00:47:13.413Z,0.57
2019-01-11T00:49:31.176Z,0.52
2019-01-11T00:51:34.337Z,0.26
2019-01-11T00:53:35.680Z,0.29
2019-01-11T00:55:36.713Z,0.14
2019-01-11T00:57:39.071Z,0.18
2019-01-11T00:59:44.639Z,0.39
2019-01-11T01:03:03.408Z,0.31
2019-01-11T01:04:28.868Z,0.31
2019-01-11T01:06:30.060Z,0.34
2019-01-11T01:08:30.807Z,0.20
2019-01-11T01:10:32.758Z,0.11
2019-01-11T01:12:33.493Z,0.26
2019-01-11T01:15:33.190Z,0.33
2019-01-11T01:17:15.152Z,0.43
2019-01-11T01:19:20.105Z,0.49
2019-01-11T01:21:21.724Z,0.46
2019-01-11T01:26:10.180Z,0.31
2019-01-11T01:28:11.578Z,0.28
2019-01-11T01:30:14.978Z,0.32
2019-01-11T01:32:15.800Z,0.18
2019-01-11T01:34:17.858Z,0.20
2019-01-11T01:36:20.379Z,0.27
2019-01-11T01:38:21.268Z,0.30
2019-01-11T01:40:22.382Z,0.24
2019-01-11T01:42:23.790Z,0.16
2019-01-11T01:44:24.732Z,0.26
2019-01-11T01:46:28.142Z,0.27
2019-01-11T01:48:28.873Z,0.24
2019-01-11T01:50:32.310Z,0.16
2019-01-11T01:52:33.321Z,0.18
2019-01-11T01:54:35.859Z,0.20
2019-01-11T01:56:39.492Z,0.26
2019-01-11T01:58:43.581Z,0.24
2019-01-11T02:00:48.064Z,0.21
2019-01-11T02:03:28.030Z,0.25
2019-01-11T02:05:27.758Z,0.33
2019-01-11T02:07:30.104Z,0.28
2019-01-11T02:09:31.434Z,0.22
2019-01-11T02:11:32.404Z,0.13
2019-01-11T02:13:37.797Z,0.18
2019-01-11T02:15:54.475Z,0.15
2019-01-11T02:18:06.443Z,0.31
2019-01-11T02:20:16.818Z,0.33
2019-01-11T02:22:17.911Z,0.31
2019-01-11T02:24:31.788Z,0.23
2019-01-11T02:26:33.778Z,0.11
2019-01-11T02:28:34.640Z,0.16
2019-01-11T02:30:36.281Z,0.20
2019-01-11T02:32:52.931Z,0.11
2019-01-11T02:37:30.639Z,0.22
2019-01-11T02:39:39.132Z,0.15
2019-01-11T02:41:40.312Z,0.21
2019-01-11T02:43:47.482Z,0.20
2019-01-11T02:45:52.508Z,0.18
2019-01-11T02:47:53.850Z,0.25
2019-01-11T02:49:55.211Z,0.29
2019-01-11T02:52:00.895Z,0.22
2019-01-11T02:54:23.925Z,0.25
2019-01-11T02:56:24.788Z,0.28
2019-01-11T02:58:25.653Z,0.23
2019-01-11T03:00:48.147Z,0.29
2019-01-11T03:02:53.211Z,0.34
2019-01-11T03:05:06.993Z,0.28
2019-01-11T03:07:09.920Z,0.21
2019-01-11T03:09:10.979Z,0.23
2019-01-11T03:11:13.359Z,0.25
2019-01-11T03:13:17.523Z,0.24
2019-01-11T03:15:21.457Z,0.23
2019-01-11T03:17:24.268Z,0.19
2019-01-11T03:19:25.921Z,0.29
2019-01-11T03:21:48.032Z,0.27
2019-01-11T03:23:46.431Z,0.27
2019-01-11T03:25:47.562Z,0.28
2019-01-11T03:27:48.614Z,0.26
2019-01-11T03:29:49.605Z,0.21
2019-01-11T03:32:00.217Z,0.18
2019-01-11T03:34:22.477Z,0.19
2019-01-11T03:36:23.277Z,0.20
2019-01-11T03:38:23.983Z,0.20
2019-01-11T03:40:25.104Z,0.18
2019-01-11T03:42:26.325Z,0.13
2019-01-11T03:44:27.426Z,0.07
2019-01-11T03:46:28.412Z,0.10
2019-01-11T03:48:29.239Z,0.11
2019-01-11T03:50:29.937Z,0.12
2019-01-11T03:52:30.642Z,0.12
2019-01-11T03:54:31.855Z,0.12
2019-01-11T03:56:32.740Z,0.17
2019-01-11T03:58:33.602Z,0.14
2019-01-11T04:00:34.700Z,0.14
2019-01-11T04:02:35.938Z,0.16
2019-01-11T04:04:36.648Z,0.18
2019-01-11T04:06:37.650Z,0.18
2019-01-11T04:08:38.518Z,0.18
2019-01-11T04:10:39.165Z,0.15
2019-01-11T04:12:40.223Z,0.11
2019-01-11T04:14:41.166Z,0.16
2019-01-11T04:16:42.165Z,0.14
2019-01-11T04:18:43.287Z,0.16
2019-01-11T04:20:44.239Z,0.15
2019-01-11T04:22:45.546Z,0.10
2019-01-11T04:24:49.678Z,0.11
2019-01-11T04:26:50.779Z,0.16
2019-01-11T04:28:51.800Z,0.19
2019-01-11T04:30:52.902Z,0.17
2019-01-11T04:32:53.888Z,0.18
2019-01-11T04:34:54.600Z,0.15
2019-01-11T04:36:56.518Z,0.16
2019-01-11T04:38:57.168Z,0.20
2019-01-11T04:40:58.330Z,0.17
2019-01-11T04:42:59.037Z,0.17
2019-01-11T04:45:00.005Z,0.15
2019-01-11T04:47:12.960Z,0.16
2019-01-11T04:49:13.884Z,0.15
2019-01-11T04:51:14.872Z,0.17
2019-01-11T04:53:15.904Z,0.15
2019-01-11T04:55:16.873Z,0.18
2019-01-11T04:57:17.508Z,0.13
2019-01-11T04:59:18.297Z,0.13
2019-01-11T05:01:19.027Z,0.12
2019-01-11T05:03:19.839Z,0.18
2019-01-11T05:05:20.721Z,0.19
2019-01-11T05:07:21.446Z,0.15
2019-01-11T05:09:22.717Z,0.17
2019-01-11T05:11:23.759Z,0.25
2019-01-11T05:13:26.220Z,0.18
2019-01-11T05:15:27.029Z,0.11
2019-01-11T05:17:27.956Z,0.17
2019-01-11T05:19:28.885Z,0.17
2019-01-11T05:21:29.887Z,0.14
2019-01-11T05:23:30.689Z,0.12
2019-01-11T05:25:31.617Z,0.13
2019-01-11T05:27:33.981Z,0.16
2019-01-11T05:29:35.147Z,0.15
2019-01-11T05:31:35.944Z,0.17
2019-01-11T05:33:36.587Z,0.08
2019-01-11T05:35:37.325Z,0.10
2019-01-11T05:37:38.069Z,0.13
2019-01-11T05:39:38.833Z,0.06
2019-01-11T05:41:39.871Z,0.10
2019-01-11T05:43:40.664Z,0.13
2019-01-11T05:45:41.408Z,0.12
2019-01-11T05:47:42.062Z,0.17
2019-01-11T05:49:42.795Z,0.14
2019-01-11T05:51:43.687Z,0.16
2019-01-11T05:53:44.387Z,0.15
2019-01-11T05:55:45.220Z,0.11
2019-01-11T05:57:45.893Z,0.16
2019-01-11T05:59:46.582Z,0.15
2019-01-11T06:01:47.462Z,0.05
2019-01-11T06:03:48.116Z,0.03
2019-01-11T06:05:49.027Z,0.00
2019-01-11T06:07:49.727Z,-0.02
2019-01-11T06:09:50.829Z,0.01
2019-01-11T06:11:51.489Z,-0.01
2019-01-11T06:13:52.252Z,-0.01
2019-01-11T06:15:53.022Z,-0.05
2019-01-11T06:17:53.713Z,-0.01
2019-01-11T06:19:54.720Z,-0.05
2019-01-11T06:21:55.466Z,-0.02
2019-01-11T06:23:56.215Z,0.00
2019-01-11T06:25:57.266Z,-0.03
2019-01-11T06:27:58.006Z,-0.07
2019-01-11T06:29:58.813Z,-0.06
2019-01-11T06:31:59.589Z,0.02
2019-01-11T06:34:00.476Z,-0.01
2019-01-11T06:36:01.429Z,0.01
2019-01-11T06:38:02.246Z,-0.01
2019-01-11T06:40:06.725Z,0.02
2019-01-11T06:42:07.530Z,-0.04
2019-01-11T06:44:08.251Z,-0.03
2019-01-11T06:46:09.567Z,0.01
2019-01-11T06:48:10.252Z,0.02
2019-01-11T06:50:13.642Z,0.05
2019-01-11T06:52:14.718Z,0.06
2019-01-11T06:54:15.421Z,0.08
2019-01-11T06:56:16.170Z,0.11
2019-01-11T06:58:16.782Z,0.09
2019-01-11T07:00:17.608Z,0.12
2019-01-11T07:02:18.369Z,0.13
2019-01-11T07:04:20.080Z,0.11
2019-01-11T07:06:20.765Z,0.18
2019-01-11T07:08:21.499Z,0.15
2019-01-11T07:10:22.292Z,0.16
2019-01-11T07:12:23.024Z,0.15
2019-01-11T07:14:23.762Z,0.18
2019-01-11T07:16:24.507Z,0.22
2019-01-11T07:18:25.198Z,0.26
2019-01-11T07:20:26.019Z,0.27
2019-01-11T07:22:26.912Z,0.20
2019-01-11T07:24:27.619Z,0.23
2019-01-11T07:26:28.401Z,0.23
2019-01-11T07:28:29.088Z,0.21
2019-01-11T07:30:29.856Z,0.22
2019-01-11T07:32:30.684Z,0.26
2019-01-11T07:34:31.389Z,0.24
2019-01-11T07:36:33.144Z,0.24
2019-01-11T07:38:33.816Z,0.26
2019-01-11T07:40:34.514Z,0.29
2019-01-11T07:42:36.115Z,0.25
2019-01-11T07:44:36.796Z,0.26
2019-01-11T07:46:37.415Z,0.29
2019-01-11T07:48:39.035Z,0.33
2019-01-11T07:50:39.808Z,0.35
2019-01-11T07:52:40.489Z,0.39
2019-01-11T07:54:41.263Z,0.35
2019-01-11T07:56:41.944Z,0.38
2019-01-11T07:58:42.558Z,0.40
2019-01-11T08:00:44.522Z,0.43
2019-01-11T08:02:45.476Z,0.42
2019-01-11T08:04:46.112Z,0.46
2019-01-11T08:06:46.890Z,0.43
2019-01-11T08:08:47.662Z,0.48
2019-01-11T08:10:48.353Z,0.49
2019-01-11T08:12:49.032Z,0.52
2019-01-11T08:14:49.806Z,0.48
2019-01-11T08:16:50.486Z,0.53
2019-01-11T08:18:51.464Z,0.61
2019-01-11T08:20:56.195Z,0.53
2019-01-11T08:22:55.180Z,0.54
2019-01-11T08:24:56.096Z,0.56
2019-01-11T08:26:56.852Z,0.60
2019-01-11T08:28:57.781Z,0.60
2019-01-11T08:30:58.467Z,0.56
2019-01-11T08:32:59.476Z,0.56
2019-01-11T08:35:00.269Z,0.57
2019-01-11T08:37:01.207Z,0.55
2019-01-11T08:39:05.446Z,0.57
2019-01-11T08:41:06.068Z,0.57
2019-01-11T08:43:06.793Z,0.54
2019-01-11T08:45:10.759Z,0.57
2019-01-11T08:47:11.734Z,0.60
2019-01-11T08:49:12.684Z,0.63
2019-01-11T08:51:14.680Z,0.62
2019-01-11T08:53:15.658Z,0.60
2019-01-11T08:55:16.616Z,0.62
2019-01-11T08:57:17.353Z,0.64
2019-01-11T08:59:18.002Z,0.69
2019-01-11T09:01:18.660Z,0.68
2019-01-11T09:03:19.285Z,0.67
2019-01-11T09:05:19.912Z,0.63
2019-01-11T09:07:20.659Z,0.60
2019-01-11T09:09:23.393Z,0.58
2019-01-11T09:11:24.033Z,0.60
2019-01-11T09:13:26.727Z,0.59
2019-01-11T09:15:27.743Z,0.59
2019-01-11T09:17:30.424Z,0.56
2019-01-11T09:19:31.070Z,0.58
2019-01-11T09:21:31.801Z,0.60
2019-01-11T09:23:33.426Z,0.64
2019-01-11T09:25:34.065Z,0.64
2019-01-11T09:27:35.770Z,0.64
2019-01-11T09:29:36.380Z,0.64
2019-01-11T09:31:39.022Z,0.63
2019-01-11T09:33:39.771Z,0.71
2019-01-11T09:35:42.328Z,0.72
2019-01-11T09:37:43.069Z,0.70
2019-01-11T09:39:43.800Z,0.70
2019-01-11T09:41:45.412Z,0.70
2019-01-11T09:43:47.080Z,0.77
2019-01-11T09:45:47.747Z,0.79
2019-01-11T09:47:48.472Z,0.74
2019-01-11T09:49:49.167Z,0.80
2019-01-11T09:51:55.627Z,0.81
2019-01-11T09:53:57.304Z,0.78
2019-01-11T09:55:58.071Z,0.81
2019-01-11T09:57:58.808Z,0.78
2019-01-11T09:59:59.434Z,0.84
2019-01-11T10:02:00.168Z,0.86
2019-01-11T10:04:02.145Z,0.90
2019-01-11T10:06:06.027Z,0.86
2019-01-11T10:08:08.133Z,0.85
2019-01-11T10:10:10.500Z,0.83
2019-01-11T10:12:12.175Z,0.83
2019-01-11T10:14:12.909Z,0.83
2019-01-11T10:16:14.614Z,0.85
2019-01-11T10:18:16.340Z,0.92
2019-01-11T10:20:17.036Z,0.87
2019-01-11T10:22:17.761Z,0.88
2019-01-11T10:24:24.578Z,0.84
2019-01-11T10:26:26.525Z,0.86
2019-01-11T10:28:27.307Z,0.82
2019-01-11T10:30:37.533Z,0.85
2019-01-11T10:32:38.366Z,0.88
2019-01-11T10:34:48.381Z,0.96
2019-01-11T10:36:50.019Z,0.86
2019-01-11T10:38:51.697Z,0.86
2019-01-11T10:40:52.825Z,0.90
2019-01-11T10:42:54.531Z,0.92
2019-01-11T10:44:56.237Z,0.92
2019-01-11T10:46:57.903Z,0.91
2019-01-11T10:49:00.588Z,0.89
2019-01-11T10:51:01.309Z,0.93
2019-01-11T10:53:02.102Z,0.93
2019-01-11T10:55:05.891Z,0.93
2019-01-11T10:57:06.752Z,0.99
2019-01-11T10:59:07.440Z,1.03
2019-01-11T11:01:08.341Z,1.05
2019-01-11T11:03:09.024Z,1.08
2019-01-11T11:05:10.945Z,1.14
2019-01-11T11:07:11.680Z,1.11
2019-01-11T11:09:12.560Z,1.19
2019-01-11T11:11:16.563Z,1.24
2019-01-11T11:13:15.855Z,1.19
2019-01-11T11:15:17.307Z,1.23
2019-01-11T11:17:17.979Z,1.30
2019-01-11T11:19:18.770Z,1.29
2019-01-11T11:21:19.399Z,1.34
2019-01-11T11:23:20.194Z,1.28
2019-01-11T11:25:21.378Z,1.30
2019-01-11T11:27:22.064Z,1.32
2019-01-11T11:29:23.047Z,1.33
2019-01-11T11:31:23.978Z,1.36
2019-01-11T11:33:24.640Z,1.35
2019-01-11T11:35:25.598Z,1.44
2019-01-11T11:37:26.284Z,1.44
2019-01-11T11:39:27.069Z,1.52
2019-01-11T11:41:27.721Z,1.46
2019-01-11T11:43:28.656Z,1.53
2019-01-11T11:45:30.072Z,1.58
2019-01-11T11:47:30.794Z,1.70
2019-01-11T11:49:31.532Z,1.64
2019-01-11T11:51:32.265Z,1.64
2019-01-11T11:53:32.934Z,1.69
2019-01-11T11:55:33.621Z,1.69
2019-01-11T11:57:34.674Z,1.59
2019-01-11T11:59:35.335Z,1.57
2019-01-11T12:01:36.113Z,1.62
2019-01-11T12:03:37.690Z,1.61
2019-01-11T12:05:38.628Z,1.64
2019-01-11T12:07:39.305Z,1.73
2019-01-11T12:09:40.221Z,1.68
2019-01-11T12:11:40.950Z,1.72
2019-01-11T12:13:41.836Z,1.71
2019-01-11T12:15:42.604Z,1.74
2019-01-11T12:17:43.376Z,1.72
2019-01-11T12:19:44.332Z,1.78
2019-01-11T12:21:47.769Z,1.77
2019-01-11T12:23:47.763Z,1.74
2019-01-11T12:25:48.652Z,1.73
2019-01-11T12:27:49.668Z,1.75
2019-01-11T12:29:50.662Z,1.79
2019-01-11T12:31:51.595Z,1.73
2019-01-11T12:33:52.285Z,1.72
2019-01-11T12:35:53.284Z,1.82
2019-01-11T12:37:53.948Z,1.79
2019-01-11T12:39:54.707Z,1.79
2019-01-11T12:41:55.468Z,1.74
2019-01-11T12:43:56.140Z,1.83
2019-01-11T12:45:56.867Z,1.91
2019-01-11T12:47:57.646Z,1.87
2019-01-11T12:49:58.605Z,1.82
2019-01-11T12:51:59.481Z,1.81
2019-01-11T12:54:00.247Z,1.78
2019-01-11T12:56:00.917Z,1.71
2019-01-11T12:58:01.907Z,1.77
2019-01-11T13:00:06.297Z,1.77
2019-01-11T13:02:07.378Z,1.71
2019-01-11T13:04:08.064Z,1.72
2019-01-11T13:06:08.970Z,1.77
2019-01-11T13:08:09.955Z,1.80
2019-01-11T13:10:13.927Z,1.78
2019-01-11T13:12:14.694Z,1.82
2019-01-11T13:14:15.403Z,1.89
2019-01-11T13:16:16.134Z,1.83
2019-01-11T13:18:16.894Z,1.88
2019-01-11T13:20:18.581Z,1.87
2019-01-11T13:22:19.241Z,1.91
2019-01-11T13:24:20.248Z,1.93
2019-01-11T13:26:20.887Z,1.99
2019-01-11T13:28:21.845Z,1.90
2019-01-11T13:30:23.612Z,1.87
2019-01-11T13:32:24.567Z,1.93
2019-01-11T13:34:25.486Z,1.92
2019-01-11T13:36:26.229Z,1.97
2019-01-11T13:38:27.171Z,1.93
2019-01-11T13:40:28.235Z,1.89
2019-01-11T13:42:28.939Z,1.95
2019-01-11T13:44:29.899Z,1.93
2019-01-11T13:46:30.812Z,1.90
2019-01-11T13:48:31.535Z,1.91
2019-01-11T13:50:34.226Z,1.94
2019-01-11T13:52:34.900Z,1.97
2019-01-11T13:54:35.860Z,2.01
2019-01-11T13:56:36.787Z,1.99
2019-01-11T13:58:37.558Z,2.01
2019-01-11T14:00:38.159Z,2.04
2019-01-11T14:02:38.885Z,2.06
2019-01-11T14:04:39.618Z,2.07
2019-01-11T14:06:40.505Z,2.13
2019-01-11T14:08:41.384Z,2.14
2019-01-11T14:10:42.110Z,2.13
2019-01-11T14:12:43.095Z,2.15
2019-01-11T14:14:44.024Z,2.23
2019-01-11T14:16:44.994Z,2.24
2019-01-11T14:18:46.002Z,2.25
2019-01-11T14:20:46.702Z,2.23
2019-01-11T14:22:48.690Z,2.24
2019-01-11T14:24:49.325Z,2.20
2019-01-11T14:26:50.249Z,2.22
2019-01-11T14:28:50.965Z,2.27
2019-01-11T14:30:51.924Z,2.27
2019-01-11T14:32:52.552Z,2.23
2019-01-11T14:34:53.218Z,2.23
2019-01-11T14:36:55.438Z,2.20
2019-01-11T14:38:57.373Z,2.27
2019-01-11T14:40:58.308Z,2.28
2019-01-11T14:42:59.332Z,2.25
2019-01-11T14:45:00.321Z,2.25
2019-01-11T14:47:01.234Z,2.25
2019-01-11T14:49:02.225Z,2.24
2019-01-11T14:51:03.042Z,2.23
2019-01-11T14:53:03.945Z,2.21
2019-01-11T14:55:04.868Z,2.21
2019-01-11T14:57:05.831Z,2.23
2019-01-11T14:59:06.510Z,2.23
2019-01-11T15:01:07.384Z,2.22
2019-01-11T15:03:14.233Z,2.25
2019-01-11T15:05:15.813Z,2.24
2019-01-11T15:07:19.760Z,2.23
2019-01-11T15:09:26.781Z,2.22
2019-01-11T15:11:29.511Z,2.23
2019-01-11T15:13:31.233Z,2.20
2019-01-11T15:15:37.774Z,2.23
2019-01-11T15:17:39.487Z,2.23
2019-01-11T15:19:40.255Z,2.25
2019-01-11T15:21:41.190Z,2.25
2019-01-11T15:23:42.123Z,2.28
2019-01-11T15:25:43.101Z,2.29
2019-01-11T15:27:43.775Z,2.32
2019-01-11T15:29:44.483Z,2.34
2019-01-11T15:31:45.238Z,2.40
2019-01-11T15:33:46.174Z,2.43
2019-01-11T15:35:46.866Z,2.48
2019-01-11T15:37:47.880Z,2.48
2019-01-11T15:39:49.609Z,2.52
2019-01-11T15:41:50.293Z,2.59
2019-01-11T15:43:51.297Z,2.66
2019-01-11T15:45:55.752Z,2.70
2019-01-11T15:47:56.448Z,2.73
2019-01-11T15:49:57.449Z,2.79
2019-01-11T15:51:59.161Z,2.83
2019-01-11T15:54:00.035Z,2.83
2019-01-11T15:56:00.799Z,2.88
2019-01-11T15:58:01.731Z,2.87
2019-01-11T16:00:06.173Z,2.90
2019-01-11T16:02:07.143Z,2.84
2019-01-11T16:04:09.065Z,2.87
2019-01-11T16:06:16.753Z,2.89
2019-01-11T16:08:17.428Z,2.89
2019-01-11T16:10:18.960Z,2.98
2019-01-11T16:12:19.973Z,2.89
2019-01-11T16:14:36.518Z,2.92
2019-01-11T16:16:38.481Z,2.89
2019-01-11T16:18:39.205Z,2.92
2019-01-11T16:20:40.989Z,2.91
2019-01-11T16:22:41.970Z,2.92
2019-01-11T16:24:42.822Z,2.91
2019-01-11T16:26:43.642Z,2.92
2019-01-11T16:28:44.665Z,2.91
2019-01-11T16:30:45.584Z,2.90
2019-01-11T16:32:47.576Z,2.88
2019-01-11T16:34:48.571Z,2.87
2019-01-11T16:36:49.262Z,2.93
2019-01-11T16:38:50.113Z,2.93
2019-01-11T16:40:51.046Z,2.95
2019-01-11T16:42:52.007Z,2.92
2019-01-11T16:44:52.729Z,2.94
2019-01-11T16:46:53.683Z,2.94
2019-01-11T16:48:54.579Z,2.93
2019-01-11T16:50:55.326Z,2.93
2019-01-11T16:52:57.298Z,2.95
2019-01-11T16:54:58.984Z,2.99
2019-01-11T16:57:00.004Z,2.98
2019-01-11T16:59:00.686Z,2.99
2019-01-11T17:01:01.541Z,2.96
2019-01-11T17:03:02.458Z,2.94
2019-01-11T17:05:04.720Z,3.01
2019-01-11T17:07:08.379Z,2.97
2019-01-11T17:09:09.389Z,3.02
2019-01-11T17:11:11.083Z,3.14
2019-01-11T17:13:12.034Z,3.24
2019-01-11T17:15:15.384Z,3.28
2019-01-11T17:17:16.049Z,3.29
2019-01-11T17:19:16.753Z,3.31
2019-01-11T17:21:17.548Z,3.30
2019-01-11T17:23:18.237Z,3.37
2019-01-11T17:25:19.057Z,3.34
2019-01-11T17:27:20.027Z,3.35
2019-01-11T17:29:20.628Z,3.33
2019-01-11T17:31:21.343Z,3.35
2019-01-11T17:33:22.308Z,3.37
2019-01-11T17:35:23.160Z,3.39
2019-01-11T17:37:23.869Z,3.41
2019-01-11T17:39:24.870Z,3.45
2019-01-11T17:41:25.764Z,3.42
2019-01-11T17:43:26.452Z,3.48
2019-01-11T17:45:27.100Z,3.47
2019-01-11T17:47:27.915Z,3.49
2019-01-11T17:49:29.111Z,3.59
2019-01-11T17:51:29.943Z,3.56
2019-01-11T17:53:31.017Z,3.55
2019-01-11T17:55:31.992Z,3.62
2019-01-11T17:57:32.996Z,3.59
2019-01-11T17:59:33.609Z,3.62
2019-01-11T18:01:34.263Z,3.58
2019-01-11T18:03:35.025Z,3.60
2019-01-11T18:05:35.954Z,3.67
2019-01-11T18:07:36.697Z,3.64
2019-01-11T18:09:37.436Z,3.65
2019-01-11T18:11:38.387Z,3.67
2019-01-11T18:13:39.309Z,3.70
2019-01-11T18:15:40.290Z,3.72
2019-01-11T18:17:42.150Z,3.71
2019-01-11T18:19:42.918Z,3.73
2019-01-11T18:21:43.667Z,3.72
2019-01-11T18:23:44.351Z,3.80
2019-01-11T18:25:45.065Z,3.88
2019-01-11T18:27:45.823Z,3.94
2019-01-11T18:29:46.522Z,3.96
2019-01-11T18:31:47.400Z,3.93
2019-01-11T18:33:49.161Z,3.96
2019-01-11T18:35:54.103Z,3.98
2019-01-11T18:38:02.922Z,4.01
2019-01-11T18:40:13.914Z,4.04
2019-01-11T18:42:14.809Z,4.04
2019-01-11T18:44:15.753Z,4.10
2019-01-11T18:46:16.479Z,4.10
2019-01-11T18:48:17.405Z,4.12
2019-01-11T18:50:22.000Z,4.11
2019-01-11T18:52:22.993Z,4.13
2019-01-11T18:54:23.889Z,4.17
2019-01-11T18:56:24.590Z,4.19
2019-01-11T18:58:25.541Z,4.20
2019-01-11T19:00:35.295Z,4.23
2019-01-11T19:02:49.232Z,4.21
2019-01-11T19:04:52.105Z,4.19
2019-01-11T19:06:54.027Z,4.20
2019-01-11T19:08:55.116Z,4.15
2019-01-11T19:10:55.914Z,4.17
2019-01-11T19:12:56.641Z,4.21
2019-01-11T19:14:57.482Z,4.18
2019-01-11T19:16:58.264Z,4.21
2019-01-11T19:18:59.565Z,4.22
2019-01-11T19:21:00.477Z,4.29
2019-01-11T19:23:02.940Z,4.30
2019-01-11T19:25:07.116Z,4.31
2019-01-11T19:27:10.612Z,4.30
2019-01-11T19:29:14.758Z,4.35
2019-01-11T19:31:15.305Z,4.38
2019-01-11T19:33:17.009Z,4.39
2019-01-11T19:35:19.335Z,4.42
2019-01-11T19:37:22.435Z,4.52
2019-01-11T19:39:25.236Z,4.55
2019-01-11T19:41:30.190Z,4.53
2019-01-11T19:43:35.409Z,4.53
2019-01-11T19:45:42.670Z,4.57
2019-01-11T19:47:45.708Z,4.56
2019-01-11T19:49:50.413Z,4.58
2019-01-11T19:51:51.308Z,4.55
2019-01-11T19:53:52.164Z,4.56
2019-01-11T19:55:59.010Z,4.56
2019-01-11T19:58:00.131Z,4.61
2019-01-11T20:00:01.286Z,4.67
2019-01-11T20:02:03.177Z,4.67
2019-01-11T20:04:04.217Z,4.69
2019-01-11T20:06:05.129Z,4.73
2019-01-11T20:08:07.427Z,4.74
2019-01-11T20:10:11.909Z,4.70
2019-01-11T20:12:12.820Z,4.80
2019-01-11T20:14:13.521Z,4.82
2019-01-11T20:16:14.336Z,4.88
2019-01-11T20:18:15.128Z,5.04
2019-01-11T20:20:16.021Z,5.05
2019-01-11T20:22:24.566Z,5.05
2019-01-11T20:24:26.560Z,5.13
2019-01-11T20:26:28.487Z,5.28
2019-01-11T20:28:34.169Z,5.32
2019-01-11T20:30:34.863Z,5.39
2019-01-11T20:32:35.565Z,5.37
2019-01-11T20:34:36.312Z,5.40
2019-01-11T20:36:40.764Z,5.60
2019-01-11T20:38:41.455Z,5.56
2019-01-11T20:40:42.167Z,5.49
2019-01-11T20:42:42.933Z,5.54
2019-01-11T20:44:43.935Z,5.56
2019-01-11T20:46:44.675Z,5.56
2019-01-11T20:48:45.590Z,5.52
2019-01-11T20:50:46.568Z,5.56
2019-01-11T20:52:47.353Z,5.54
2019-01-11T20:54:48.041Z,5.61
2019-01-11T20:56:48.721Z,5.65
2019-01-11T20:58:49.384Z,5.61
2019-01-11T21:00:50.399Z,5.61
2019-01-11T21:02:51.221Z,5.63
2019-01-11T21:04:52.070Z,5.48
2019-01-11T21:06:53.150Z,5.58
2019-01-11T21:08:53.941Z,5.41
2019-01-11T21:10:59.694Z,5.37
2019-01-11T21:13:00.592Z,5.34
2019-01-11T21:15:01.812Z,5.35
2019-01-11T21:17:02.812Z,5.35
2019-01-11T21:19:03.945Z,5.28
2019-01-11T21:21:04.604Z,5.29
2019-01-11T21:23:05.472Z,5.30
2019-01-11T21:25:08.738Z,5.32
2019-01-11T21:27:09.769Z,5.38
2019-01-11T21:29:10.468Z,5.44
2019-01-11T21:31:11.676Z,5.49
2019-01-11T21:33:12.584Z,5.42
2019-01-11T21:35:13.383Z,5.44
2019-01-11T21:37:14.154Z,5.41
2019-01-11T21:39:15.040Z,5.41
2019-01-11T21:41:15.782Z,5.64
2019-01-11T21:43:17.560Z,5.53
2019-01-11T21:45:18.430Z,5.52
2019-01-11T21:47:19.060Z,5.51
2019-01-11T21:49:20.008Z,5.62
2019-01-11T21:51:21.053Z,5.71
2019-01-11T21:53:21.883Z,5.74
2019-01-11T21:55:23.126Z,5.78
2019-01-11T21:57:25.133Z,5.69
2019-01-11T21:59:25.968Z,5.65
2019-01-11T22:01:26.660Z,5.69
2019-01-11T22:03:27.554Z,5.77
2019-01-11T22:05:28.310Z,5.61
2019-01-11T22:07:29.121Z,5.59
2019-01-11T22:09:29.830Z,5.68
2019-01-11T22:11:30.480Z,5.67
2019-01-11T22:13:31.201Z,5.69
2019-01-11T22:15:32.113Z,5.66
2019-01-11T22:17:32.743Z,5.67
2019-01-11T22:19:35.478Z,5.60
2019-01-11T22:21:38.943Z,5.62
2019-01-11T22:23:40.003Z,5.66
2019-01-11T22:25:40.687Z,5.60
2019-01-11T22:27:41.378Z,5.62
2019-01-11T22:29:43.032Z,5.59
2019-01-11T22:31:43.902Z,5.65
2019-01-11T22:33:46.742Z,5.63
2019-01-11T22:35:47.422Z,5.56
2019-01-11T22:37:49.578Z,5.57
2019-01-11T22:39:50.527Z,5.56
2019-01-11T22:41:53.652Z,5.56
2019-01-11T22:43:55.590Z,5.55
2019-01-11T22:45:56.629Z,5.51
2019-01-11T22:47:57.340Z,5.54
2019-01-11T22:49:59.403Z,5.59
2019-01-11T22:52:00.186Z,5.54
2019-01-11T22:54:10.034Z,5.54
2019-01-11T22:56:07.297Z,5.64
2019-01-11T22:58:08.973Z,5.61
2019-01-11T23:00:32.867Z,5.63
2019-01-11T23:02:35.515Z,5.65
2019-01-11T23:04:36.351Z,5.71
2019-01-11T23:06:43.778Z,5.75
2019-01-11T23:08:55.177Z,5.75
2019-01-11T23:11:25.941Z,5.64
2019-01-11T23:13:26.615Z,5.58
2019-01-11T23:15:27.731Z,5.55
2019-01-11T23:17:32.397Z,5.48
2019-01-11T23:19:33.157Z,5.51
2019-01-11T23:21:33.931Z,5.55
2019-01-11T23:23:34.544Z,5.49
2019-01-11T23:25:35.451Z,5.44
2019-01-11T23:27:36.187Z,5.51
2019-01-11T23:29:36.811Z,5.46
2019-01-11T23:31:37.682Z,5.54
2019-01-11T23:33:38.417Z,5.53
2019-01-11T23:35:39.321Z,5.68
2019-01-11T23:37:40.268Z,5.54
2019-01-11T23:39:41.243Z,5.68
2019-01-11T23:41:42.351Z,5.61
2019-01-11T23:43:42.999Z,5.56
2019-01-11T23:45:43.691Z,5.45
2019-01-11T23:47:44.393Z,5.39
2019-01-11T23:49:45.368Z,5.34
2019-01-11T23:51:46.317Z,5.35
2019-01-11T23:53:47.207Z,5.32
2019-01-11T23:55:47.909Z,5.39
2019-01-11T23:57:48.937Z,5.37
2019-01-11T23:59:49.596Z,5.39
